Time;durP1;ratioP1;P1;durP2;ratioP2;P2;SDS_P1;SDS_P2;PMS_P1;PMS_P2;Temp;Humidity;BMP_temperature;BMP_pressure;BME280_temperature;BME280_humidity;BME280_pressure;Samples;Min_cycle;Max_cycle;Signal;HPM_P1;HPM_P2
2022/04/26 03:37:24;;;;;;;;;;;10.30;1.00;;;;;;5056930;28;19954;-82
2022/04/26 03:39:50;;;;;;;;;;;10.30;1.00;;;;;;5042021;28;19912;-82
2022/04/26 03:42:15;;;;;;;;;;;10.30;1.00;;;;;;5060997;28;19909;-82
2022/04/26 03:44:42;;;;;;;;;;;10.30;1.00;;;;;;5058605;28;19920;-82
2022/04/26 03:47:08;;;;;;;;;;;10.30;1.00;;;;;;5061312;28;19912;-82
2022/04/26 03:49:33;;;;;;;;;;;10.30;1.00;;;;;;5060883;28;19919;-82
2022/04/26 03:51:59;;;;;;;;;;;10.30;1.00;;;;;;5042466;28;19909;-82
2022/04/26 03:54:24;;;;;;;;;;;10.30;1.00;;;;;;5041941;28;19977;-81
2022/04/26 03:56:50;;;;;;;;;;;10.30;1.00;;;;;;5061020;28;19924;-82
2022/04/26 03:59:16;;;;;;;;;;;10.20;1.00;;;;;;5044322;28;20006;-82
2022/04/26 04:01:41;;;;;;;;;;;10.20;1.00;;;;;;5043006;28;19916;-82
2022/04/26 04:04:07;;;;;;;;;;;10.20;1.00;;;;;;5043657;28;20367;-82
2022/04/26 04:06:32;;;;;;;;;;;10.20;1.00;;;;;;5053453;28;19919;-81
2022/04/26 04:08:58;;;;;;;;;;;10.20;1.00;;;;;;5075263;28;19913;-81
2022/04/26 04:11:23;;;;;;;;;;;10.20;1.00;;;;;;5045394;28;19920;-82
2022/04/26 04:13:49;;;;;;;;;;;10.20;1.00;;;;;;5042429;28;19947;-82
2022/04/26 04:16:15;;;;;;;;;;;10.10;1.00;;;;;;5059944;28;19913;-82
2022/04/26 04:21:24;;;;;;;;;;;10.10;1.00;;;;;;5062517;28;19927;-82
2022/04/26 04:23:50;;;;;;;;;;;10.10;1.00;;;;;;5064199;28;19912;-82
2022/04/26 04:26:18;;;;;;;;;;;10.00;1.00;;;;;;5042932;28;19920;-82
2022/04/26 04:28:43;;;;;;;;;;;10.00;1.00;;;;;;5066096;28;19923;-82
2022/04/26 04:31:10;;;;;;;;;;;10.00;1.00;;;;;;5040937;28;19921;-82
2022/04/26 04:33:38;;;;;;;;;;;10.00;1.00;;;;;;5058652;28;19917;-81
2022/04/26 04:36:04;;;;;;;;;;;9.90;1.00;;;;;;5059466;28;19924;-82
2022/04/26 04:38:30;;;;;;;;;;;9.90;1.00;;;;;;5059177;28;19921;-82
2022/04/26 04:40:55;;;;;;;;;;;9.90;1.00;;;;;;5042008;28;20007;-82
2022/04/26 04:43:21;;;;;;;;;;;9.90;1.00;;;;;;5057290;28;19963;-82
2022/04/26 04:45:47;;;;;;;;;;;9.90;1.00;;;;;;5040358;28;19912;-82
2022/04/26 04:48:12;;;;;;;;;;;9.90;1.00;;;;;;5062459;28;19934;-82
2022/04/26 04:50:38;;;;;;;;;;;9.90;1.00;;;;;;5041262;28;20238;-82
2022/04/26 04:53:03;;;;;;;;;;;9.90;1.00;;;;;;5039246;28;19913;-82
2022/04/26 04:55:29;;;;;;;;;;;9.90;1.00;;;;;;5042070;28;19921;-82
2022/04/26 04:57:54;;;;;;;;;;;9.90;1.00;;;;;;5041098;28;19920;-82
2022/04/26 05:00:20;;;;;;;;;;;9.90;1.00;;;;;;5056973;28;19986;-82
2022/04/26 05:02:45;;;;;;;;;;;10.00;1.00;;;;;;5042174;28;19913;-82
2022/04/26 05:05:11;;;;;;;;;;;9.90;1.00;;;;;;5040668;28;19919;-82
2022/04/26 05:07:37;;;;;;;;;;;9.90;1.00;;;;;;5059623;28;19916;-82
2022/04/26 05:10:06;;;;;;;;;;;9.90;1.00;;;;;;5038554;28;20490;-82
2022/04/26 05:12:32;;;;;;;;;;;10.00;1.00;;;;;;5041086;28;20396;-82
2022/04/26 05:14:57;;;;;;;;;;;10.00;1.00;;;;;;5057168;28;19916;-82
2022/04/26 05:17:23;;;;;;;;;;;10.00;99.90;;;;;;5056752;28;20057;-81
2022/04/26 05:19:48;;;;;;;;;;;9.90;99.90;;;;;;5040653;28;19924;-82
2022/04/26 05:22:14;;;;;;;;;;;9.90;99.90;;;;;;5058147;28;20304;-82
2022/04/26 05:24:58;;;;;;;;;;;9.90;99.90;;;;;;5041544;28;19934;-81
2022/04/26 05:27:23;;;;;;;;;;;9.90;99.90;;;;;;5055438;28;19935;-81
2022/04/26 05:29:49;;;;;;;;;;;10.00;99.90;;;;;;5058982;28;19913;-82
2022/04/26 05:32:19;;;;;;;;;;;10.10;99.90;;;;;;5062159;28;19913;-82
2022/04/26 05:34:44;;;;;;;;;;;10.20;99.90;;;;;;5058788;28;19913;-82
2022/04/26 05:37:10;;;;;;;;;;;10.30;1.00;;;;;;5061351;28;19920;-81
2022/04/26 05:39:35;;;;;;;;;;;10.40;1.00;;;;;;5061859;28;20001;-80
2022/04/26 05:42:01;;;;;;;;;;;10.50;1.00;;;;;;5042131;28;19924;-81
2022/04/26 05:44:26;;;;;;;;;;;10.60;99.90;;;;;;5058304;28;19920;-80
2022/04/26 05:46:52;;;;;;;;;;;10.60;99.90;;;;;;5058136;28;20281;-80
2022/04/26 05:49:17;;;;;;;;;;;10.70;99.90;;;;;;5057694;28;20396;-80
2022/04/26 05:51:42;;;;;;;;;;;10.80;1.00;;;;;;5061275;28;19912;-80
2022/04/26 05:54:08;;;;;;;;;;;10.80;1.00;;;;;;5055915;28;20376;-81
2022/04/26 05:56:33;;;;;;;;;;;10.90;1.00;;;;;;5056302;28;20440;-80
2022/04/26 05:58:59;;;;;;;;;;;11.10;99.90;;;;;;5058868;28;20296;-81
2022/04/26 06:01:24;;;;;;;;;;;11.10;99.90;;;;;;5042791;28;19917;-80
2022/04/26 06:03:50;;;;;;;;;;;11.20;99.90;;;;;;5061187;28;19995;-80
2022/04/26 06:06:15;;;;;;;;;;;11.40;99.90;;;;;;5039041;28;19920;-80
2022/04/26 06:08:41;;;;;;;;;;;11.60;8.00;;;;;;5055060;28;20440;-80
2022/04/26 06:11:07;;;;;;;;;;;11.80;1.00;;;;;;5060322;28;19934;-81
2022/04/26 06:13:32;;;;;;;;;;;11.80;99.90;;;;;;5042793;28;19917;-81
2022/04/26 06:15:57;;;;;;;;;;;11.70;99.90;;;;;;5039030;28;19913;-82
2022/04/26 06:18:23;;;;;;;;;;;11.70;99.90;;;;;;5040742;28;20368;-81
2022/04/26 06:20:48;;;;;;;;;;;11.60;99.90;;;;;;5059537;28;19917;-81
2022/04/26 06:23:14;;;;;;;;;;;11.50;99.90;;;;;;5041626;28;19919;-81
2022/04/26 06:25:39;;;;;;;;;;;11.30;99.90;;;;;;5040489;28;19913;-81
2022/04/26 06:28:06;;;;;;;;;;;11.30;1.00;;;;;;5061862;28;20369;-81
2022/04/26 06:30:31;;;;;;;;;;;11.30;1.00;;;;;;5040027;28;19995;-81
2022/04/26 06:32:57;;;;;;;;;;;11.20;1.00;;;;;;5056666;28;19959;-81
2022/04/26 06:35:22;;;;;;;;;;;11.30;26.20;;;;;;5057978;28;19944;-81
2022/04/26 06:37:48;;;;;;;;;;;11.30;99.90;;;;;;5059621;28;19958;-82
2022/04/26 06:40:14;;;;;;;;;;;11.30;1.00;;;;;;5056256;28;20385;-84
2022/04/26 06:42:39;;;;;;;;;;;11.40;18.90;;;;;;5040708;28;19943;-82
2022/04/26 06:45:05;;;;;;;;;;;11.40;99.90;;;;;;5065278;28;19916;-82
2022/04/26 06:47:30;;;;;;;;;;;11.40;1.00;;;;;;5060920;28;19999;-81
2022/04/26 06:49:56;;;;;;;;;;;11.40;1.00;;;;;;5059765;28;20381;-81
2022/04/26 06:52:21;;;;;;;;;;;11.50;1.00;;;;;;5065041;28;20440;-81
2022/04/26 06:54:47;;;;;;;;;;;11.50;1.00;;;;;;5105847;22;19948;-86
2022/04/26 06:57:12;;;;;;;;;;;11.60;1.00;;;;;;5066612;28;19939;-88
2022/04/26 06:59:39;;;;;;;;;;;11.60;1.00;;;;;;5074487;28;19912;-85
2022/04/26 07:02:05;;;;;;;;;;;11.70;1.00;;;;;;5066037;28;19921;-86
2022/04/26 07:04:30;;;;;;;;;;;11.70;1.00;;;;;;5068468;28;19931;-85
2022/04/26 07:06:56;;;;;;;;;;;11.80;1.00;;;;;;5054365;28;19909;-87
2022/04/26 07:09:22;;;;;;;;;;;11.90;99.90;;;;;;5053958;28;19905;-85
2022/04/26 07:11:47;;;;;;;;;;;12.10;99.90;;;;;;5055126;28;20396;-85
2022/04/26 07:14:13;;;;;;;;;;;12.40;1.00;;;;;;5053182;28;19935;-87
2022/04/26 07:16:38;;;;;;;;;;;12.50;1.00;;;;;;5051005;28;19921;-85
2022/04/26 07:19:04;;;;;;;;;;;12.60;99.90;;;;;;5053019;28;19920;-84
2022/04/26 07:21:30;;;;;;;;;;;12.70;99.90;;;;;;5050683;28;19908;-86
2022/04/26 07:23:55;;;;;;;;;;;12.70;99.90;;;;;;5059301;28;19913;-85
2022/04/26 07:26:21;;;;;;;;;;;12.80;52.50;;;;;;5051668;28;19943;-83
2022/04/26 07:28:46;;;;;;;;;;;12.90;19.00;;;;;;5052351;28;19921;-83
2022/04/26 07:31:12;;;;;;;;;;;13.10;1.00;;;;;;5052099;28;19964;-83
2022/04/26 07:36:22;;;;;;;;;;;13.60;1.00;;;;;;5057422;28;19920;-84
2022/04/26 07:38:49;;;;;;;;;;;13.70;99.90;;;;;;5052190;28;19909;-86
2022/04/26 07:41:14;;;;;;;;;;;13.70;99.90;;;;;;5049461;28;19942;-85
2022/04/26 07:43:41;;;;;;;;;;;13.80;99.90;;;;;;5050462;28;19917;-84
2022/04/26 07:46:07;;;;;;;;;;;13.60;99.90;;;;;;5050681;28;19920;-83
2022/04/26 07:48:33;;;;;;;;;;;13.50;99.90;;;;;;5051349;28;19913;-85
2022/04/26 07:50:59;;;;;;;;;;;13.40;99.90;;;;;;5050749;28;19920;-85
2022/04/26 07:53:26;;;;;;;;;;;13.20;99.90;;;;;;5051299;28;19909;-84
2022/04/26 07:55:52;;;;;;;;;;;13.10;99.90;;;;;;5050965;28;19948;-83
2022/04/26 07:58:17;;;;;;;;;;;13.10;99.90;;;;;;5046433;28;22040;-84
2022/04/26 08:00:43;;;;;;;;;;;13.10;99.90;;;;;;5041463;28;19917;-84
2022/04/26 08:03:08;;;;;;;;;;;12.90;99.90;;;;;;5051242;28;19920;-85
2022/04/26 08:05:34;;;;;;;;;;;13.00;1.00;;;;;;5054246;28;19972;-85
2022/04/26 08:07:59;;;;;;;;;;;13.20;1.00;;;;;;5059255;28;20301;-83
2022/04/26 08:10:25;;;;;;;;;;;13.40;99.90;;;;;;5052914;28;19952;-83
2022/04/26 08:12:50;;;;;;;;;;;13.50;99.90;;;;;;5051330;28;19945;-84
2022/04/26 08:15:18;;;;;;;;;;;13.50;99.90;;;;;;5048552;28;19920;-84
2022/04/26 08:17:44;;;;;;;;;;;13.50;99.90;;;;;;5053018;28;19947;-84
2022/04/26 08:20:10;;;;;;;;;;;13.40;99.90;;;;;;5050886;28;19917;-84
2022/04/26 08:22:36;;;;;;;;;;;13.40;99.90;;;;;;5055094;28;19923;-83
2022/04/26 08:27:49;;;;;;;;;;;13.20;99.90;;;;;;5046906;28;19920;-84
2022/04/26 08:30:14;;;;;;;;;;;13.10;99.90;;;;;;5066831;28;19980;-83
2022/04/26 08:32:41;;;;;;;;;;;13.00;99.90;;;;;;5051149;28;19913;-84
2022/04/26 08:35:07;;;;;;;;;;;12.90;99.90;;;;;;5051002;28;19907;-83
2022/04/26 08:37:33;;;;;;;;;;;12.90;99.90;;;;;;5048731;28;19917;-82
2022/04/26 08:39:59;;;;;;;;;;;12.80;1.00;;;;;;5050097;28;20388;-84
2022/04/26 08:42:34;;;;;;;;;;;12.80;1.00;;;;;;5049550;28;19913;-82
2022/04/26 08:45:00;;;;;;;;;;;12.80;1.00;;;;;;5060900;28;19976;-83
2022/04/26 08:52:53;;;;;;;;;;;12.80;1.00;;;;;;5049111;28;19920;-83
2022/04/26 08:55:20;;;;;;;;;;;13.00;1.00;;;;;;5051557;28;19918;-83
2022/04/26 08:57:45;;;;;;;;;;;13.30;1.00;;;;;;5055850;28;19935;-82
2022/04/26 09:00:11;;;;;;;;;;;13.60;1.00;;;;;;5053184;28;19964;-83
2022/04/26 09:02:37;;;;;;;;;;;13.80;99.90;;;;;;5048873;28;19924;-82
2022/04/26 09:05:09;;;;;;;;;;;14.10;99.90;;;;;;5058041;28;19947;-84
2022/04/26 09:07:39;;;;;;;;;;;14.60;99.90;;;;;;5051466;28;21463;-84
2022/04/26 09:10:09;;;;;;;;;;;14.90;99.00;;;;;;5061121;28;19920;-83
2022/04/26 09:12:55;;;;;;;;;;;15.40;17.10;;;;;;5052542;28;19913;-83
2022/04/26 09:15:20;;;;;;;;;;;16.10;1.00;;;;;;5035830;28;19920;-84
2022/04/26 09:17:45;;;;;;;;;;;19.00;1.00;;;;;;5048304;28;19980;-85
2022/04/26 09:20:11;;;;;;;;;;;19.90;99.90;;;;;;5060578;28;19917;-85
2022/04/26 09:22:39;;;;;;;;;;;19.40;99.90;;;;;;5047987;28;20128;-84
2022/04/26 09:25:08;;;;;;;;;;;18.40;99.90;;;;;;5054677;28;19944;-83
2022/04/26 09:27:41;;;;;;;;;;;17.80;99.90;;;;;;5050276;28;19948;-83
2022/04/26 09:30:10;;;;;;;;;;;17.30;99.90;;;;;;5046748;28;19917;-83
2022/04/26 09:32:43;;;;;;;;;;;16.90;99.90;;;;;;5051598;28;20444;-81
2022/04/26 09:35:18;;;;;;;;;;;16.60;99.90;;;;;;5053437;28;19920;-83
2022/04/26 09:37:44;;;;;;;;;;;16.20;99.90;;;;;;5050992;28;19913;-84
2022/04/26 09:40:11;;;;;;;;;;;15.90;99.90;;;;;;5053618;28;19932;-83
2022/04/26 09:42:39;;;;;;;;;;;15.70;99.90;;;;;;5056577;28;19990;-83
2022/04/26 09:45:06;;;;;;;;;;;15.60;99.90;;;;;;5056474;28;20452;-83
2022/04/26 09:47:34;;;;;;;;;;;15.50;99.90;;;;;;5057312;28;19916;-83
2022/04/26 09:50:03;;;;;;;;;;;15.50;99.90;;;;;;5056319;28;19901;-83
2022/04/26 09:52:35;;;;;;;;;;;15.50;99.90;;;;;;5048567;28;19920;-82
2022/04/26 09:55:01;;;;;;;;;;;15.50;99.90;;;;;;5046407;28;19964;-83
2022/04/26 09:57:28;;;;;;;;;;;15.50;99.90;;;;;;5053465;28;19913;-83
2022/04/26 09:59:53;;;;;;;;;;;15.50;99.90;;;;;;5048184;28;19913;-83
2022/04/26 10:02:22;;;;;;;;;;;15.50;99.90;;;;;;5061811;28;19913;-84
2022/04/26 10:04:50;;;;;;;;;;;15.50;99.90;;;;;;5067762;28;19980;-83
2022/04/26 10:07:17;;;;;;;;;;;15.40;99.90;;;;;;5060139;28;19948;-84
2022/04/26 10:09:45;;;;;;;;;;;15.50;99.90;;;;;;5043672;28;19917;-83
2022/04/26 10:12:11;;;;;;;;;;;15.60;99.90;;;;;;5057846;28;19932;-84
2022/04/26 10:14:37;;;;;;;;;;;15.40;99.90;;;;;;5049736;28;19913;-83
2022/04/26 10:17:03;;;;;;;;;;;15.30;99.90;;;;;;5053695;28;19920;-83
2022/04/26 10:19:38;;;;;;;;;;;15.30;99.90;;;;;;5047595;28;19913;-85
2022/04/26 10:22:04;;;;;;;;;;;15.40;99.90;;;;;;5055995;28;19928;-84
2022/04/26 10:24:30;;;;;;;;;;;15.70;99.90;;;;;;5050450;28;19913;-84
2022/04/26 10:27:15;;;;;;;;;;;16.00;99.90;;;;;;5039628;28;20421;-84
2022/04/26 10:29:44;;;;;;;;;;;16.10;99.90;;;;;;5047531;28;19917;-84
2022/04/26 10:32:11;;;;;;;;;;;16.20;99.90;;;;;;5049565;28;19921;-84
2022/04/26 10:34:36;;;;;;;;;;;16.10;99.90;;;;;;5044593;28;19914;-83
2022/04/26 10:37:08;;;;;;;;;;;16.10;99.90;;;;;;5064159;28;19923;-84
2022/04/26 10:39:37;;;;;;;;;;;16.00;99.90;;;;;;5047884;28;19913;-85
2022/04/26 10:42:04;;;;;;;;;;;15.90;99.90;;;;;;5055882;28;20011;-84
2022/04/26 10:44:32;;;;;;;;;;;16.00;99.90;;;;;;5051395;28;19937;-85
2022/04/26 10:47:20;;;;;;;;;;;15.90;99.90;;;;;;5055169;28;19922;-84
2022/04/26 10:49:47;;;;;;;;;;;15.90;99.90;;;;;;5051573;28;19913;-83
2022/04/26 10:52:19;;;;;;;;;;;15.70;99.90;;;;;;5056677;28;19980;-84
2022/04/26 10:57:20;;;;;;;;;;;15.80;99.90;;;;;;5056214;28;19919;-84
2022/04/26 10:59:49;;;;;;;;;;;16.10;99.90;;;;;;5056880;28;19967;-85
2022/04/26 11:02:16;;;;;;;;;;;16.20;99.90;;;;;;5046548;28;20301;-85
2022/04/26 11:04:42;;;;;;;;;;;16.60;99.90;;;;;;5054966;28;19932;-85
2022/04/26 11:07:15;;;;;;;;;;;17.00;99.90;;;;;;5047299;28;19913;-85
2022/04/26 11:09:44;;;;;;;;;;;17.10;99.90;;;;;;5048716;28;19968;-84
2022/04/26 11:12:09;;;;;;;;;;;17.30;99.90;;;;;;5048151;28;19913;-84
2022/04/26 11:14:41;;;;;;;;;;;17.10;99.90;;;;;;5052814;28;19913;-85
2022/04/26 11:17:06;;;;;;;;;;;17.10;99.90;;;;;;5050022;28;19928;-84
2022/04/26 11:19:33;;;;;;;;;;;17.30;99.90;;;;;;5040492;28;19917;-86
2022/04/26 11:22:05;;;;;;;;;;;17.60;99.90;;;;;;5043229;28;19921;-85
2022/04/26 11:29:59;;;;;;;;;;;18.20;99.90;;;;;;5042832;28;19923;-85
2022/04/26 11:32:28;;;;;;;;;;;18.40;99.90;;;;;;5048438;28;19959;-84
2022/04/26 11:34:54;;;;;;;;;;;18.50;99.90;;;;;;5042568;28;19919;-85
2022/04/26 11:37:20;;;;;;;;;;;18.70;99.90;;;;;;5054576;28;19999;-86
2022/04/26 11:39:46;;;;;;;;;;;19.00;99.90;;;;;;5042553;28;19926;-85
2022/04/26 11:42:12;;;;;;;;;;;19.30;99.90;;;;;;5055906;28;19921;-85
2022/04/26 11:44:54;;;;;;;;;;;19.40;99.90;;;;;;5047520;28;19919;-85
2022/04/26 11:47:20;;;;;;;;;;;19.50;99.90;;;;;;5046977;28;19923;-85
2022/04/26 11:49:45;;;;;;;;;;;19.50;99.90;;;;;;5054866;28;19949;-85
2022/04/26 11:52:11;;;;;;;;;;;19.60;99.90;;;;;;5054786;28;19936;-85
2022/04/26 11:54:36;;;;;;;;;;;19.70;99.90;;;;;;5053855;28;19934;-85
2022/04/26 11:57:05;;;;;;;;;;;20.30;99.90;;;;;;5047152;28;19921;-84
2022/04/26 11:59:31;;;;;;;;;;;21.00;99.90;;;;;;5049431;28;20209;-85
2022/04/26 12:01:57;;;;;;;;;;;21.00;99.90;;;;;;5049722;28;19917;-85
2022/04/26 12:04:23;;;;;;;;;;;21.10;99.90;;;;;;5052562;28;19913;-85
2022/04/26 12:06:50;;;;;;;;;;;21.70;99.90;;;;;;5043395;28;19913;-85
2022/04/26 12:09:16;;;;;;;;;;;22.20;99.90;;;;;;5038439;28;19914;-86
2022/04/26 12:11:44;;;;;;;;;;;22.20;99.90;;;;;;5044107;28;19914;-85
2022/04/26 12:14:11;;;;;;;;;;;22.10;99.90;;;;;;5045225;28;19913;-84
2022/04/26 12:16:43;;;;;;;;;;;22.80;99.90;;;;;;5046239;28;19985;-85
2022/04/26 12:19:08;;;;;;;;;;;24.00;99.90;;;;;;5050065;28;19965;-85
2022/04/26 12:21:52;;;;;;;;;;;23.40;99.90;;;;;;5047872;28;20328;-85
2022/04/26 12:24:21;;;;;;;;;;;22.60;99.90;;;;;;5048500;28;19908;-85
2022/04/26 12:26:59;;;;;;;;;;;23.20;99.90;;;;;;5051633;28;19917;-84
2022/04/26 12:29:25;;;;;;;;;;;24.40;99.90;;;;;;5043885;28;20373;-83
2022/04/26 12:31:50;;;;;;;;;;;24.50;99.90;;;;;;5046590;28;19913;-83
2022/04/26 12:34:20;;;;;;;;;;;24.70;99.90;;;;;;5040708;28;19913;-83
2022/04/26 12:36:58;;;;;;;;;;;23.90;99.90;;;;;;5042665;28;19912;-83
2022/04/26 12:39:39;;;;;;;;;;;24.60;99.90;;;;;;5044625;28;20062;-83
2022/04/26 12:42:07;;;;;;;;;;;25.00;99.90;;;;;;5050557;28;20388;-83
2022/04/26 12:44:33;;;;;;;;;;;24.80;99.90;;;;;;5050827;28;20376;-83
2022/04/26 12:52:44;;;;;;;;;;;27.10;99.90;;;;;;5050948;28;19919;-82
2022/04/26 12:55:09;;;;;;;;;;;27.40;99.90;;;;;;5092035;22;19924;-77
2022/04/26 12:57:51;;;;;;;;;;;27.40;99.90;;;;;;5083969;28;20480;-77
2022/04/26 13:00:21;;;;;;;;;;;27.50;99.90;;;;;;5089267;28;20447;-78
2022/04/26 13:02:50;;;;;;;;;;;27.70;99.90;;;;;;5089734;28;19912;-77
2022/04/26 13:05:16;;;;;;;;;;;27.80;99.90;;;;;;5077879;28;20330;-77
2022/04/26 13:07:42;;;;;;;;;;;27.30;99.90;;;;;;5067473;28;19916;-78
2022/04/26 13:10:08;;;;;;;;;;;27.00;99.90;;;;;;5070499;28;19966;-78
2022/04/26 13:12:34;;;;;;;;;;;26.30;99.90;;;;;;5070173;28;20323;-77
2022/04/26 13:15:00;;;;;;;;;;;25.90;99.90;;;;;;5065995;28;19960;-77
2022/04/26 13:17:25;;;;;;;;;;;25.10;99.90;;;;;;5066317;28;19920;-77
2022/04/26 13:19:51;;;;;;;;;;;25.60;99.90;;;;;;5068611;28;19917;-78
2022/04/26 13:22:17;;;;;;;;;;;25.40;99.90;;;;;;5070631;28;19913;-78
2022/04/26 13:24:42;;;;;;;;;;;25.10;99.90;;;;;;5069822;28;20330;-77
2022/04/26 13:27:08;;;;;;;;;;;25.10;99.90;;;;;;5069598;28;20002;-77
2022/04/26 13:29:33;;;;;;;;;;;25.30;99.90;;;;;;5071882;28;20390;-77
2022/04/26 13:32:00;;;;;;;;;;;25.40;99.90;;;;;;5067077;28;19923;-77
2022/04/26 13:34:26;;;;;;;;;;;25.60;99.90;;;;;;5068880;28;19924;-77
2022/04/26 13:36:52;;;;;;;;;;;25.60;99.90;;;;;;5067210;28;19917;-78
2022/04/26 13:39:18;;;;;;;;;;;25.80;99.90;;;;;;5070424;28;19912;-78
2022/04/26 13:41:43;;;;;;;;;;;25.90;99.90;;;;;;5067648;28;19912;-78
2022/04/26 13:44:09;;;;;;;;;;;26.00;99.90;;;;;;5070505;28;19920;-78
2022/04/26 13:46:36;;;;;;;;;;;26.20;99.90;;;;;;5070700;28;19921;-78
2022/04/26 13:49:01;;;;;;;;;;;26.60;99.90;;;;;;5069485;28;20352;-78
2022/04/26 13:51:29;;;;;;;;;;;26.90;99.90;;;;;;5067717;28;19986;-78
2022/04/26 13:53:55;;;;;;;;;;;26.60;99.90;;;;;;5067383;28;19920;-79
2022/04/26 13:56:20;;;;;;;;;;;26.20;99.90;;;;;;5071085;28;19916;-78
2022/04/26 13:58:46;;;;;;;;;;;26.10;99.90;;;;;;5061062;28;20395;-77
2022/04/26 14:01:11;;;;;;;;;;;25.60;99.90;;;;;;5064496;28;19917;-78
2022/04/26 14:03:37;;;;;;;;;;;25.20;99.90;;;;;;5058732;28;20288;-78
2022/04/26 14:06:02;;;;;;;;;;;24.80;99.90;;;;;;5061682;28;19920;-78
2022/04/26 14:08:30;;;;;;;;;;;24.50;99.90;;;;;;5059844;28;19909;-78
2022/04/26 14:10:56;;;;;;;;;;;24.60;99.90;;;;;;5072804;28;19912;-77
2022/04/26 14:13:22;;;;;;;;;;;24.70;99.90;;;;;;5067948;28;19919;-77
2022/04/26 14:21:47;;;;;;;;;;;24.50;99.90;;;;;;5059149;28;20000;-78
2022/04/26 14:24:04;;;;;;;;;;;23.70;99.90;;;;;;5063685;28;19935;-77
2022/04/26 14:26:29;;;;;;;;;;;23.10;99.90;;;;;;5065778;28;19913;-78
2022/04/26 14:28:55;;;;;;;;;;;22.90;99.90;;;;;;5062451;28;19920;-77
2022/04/26 14:31:20;;;;;;;;;;;22.70;99.90;;;;;;5064720;28;20296;-78
2022/04/26 14:33:46;;;;;;;;;;;22.60;99.90;;;;;;5057616;28;19940;-78
2022/04/26 14:36:11;;;;;;;;;;;22.60;99.90;;;;;;5059100;28;20064;-77
2022/04/26 14:38:37;;;;;;;;;;;22.50;99.90;;;;;;5053181;28;19978;-77
2022/04/26 14:41:02;;;;;;;;;;;22.40;99.90;;;;;;5068611;28;19995;-77
2022/04/26 14:43:28;;;;;;;;;;;22.50;99.90;;;;;;5073196;28;20372;-77
2022/04/26 14:45:55;;;;;;;;;;;22.40;99.90;;;;;;5063557;28;19909;-78
2022/04/26 14:48:20;;;;;;;;;;;22.20;99.90;;;;;;5072131;28;19947;-78
2022/04/26 14:50:46;;;;;;;;;;;22.40;99.90;;;;;;5072349;28;19955;-77
2022/04/26 14:53:11;;;;;;;;;;;22.60;99.90;;;;;;5062798;28;19919;-77
2022/04/26 14:55:38;;;;;;;;;;;22.80;99.90;;;;;;5055775;28;19917;-78
2022/04/26 14:58:04;;;;;;;;;;;23.00;99.90;;;;;;5058239;28;19991;-77
2022/04/26 15:00:29;;;;;;;;;;;23.00;99.90;;;;;;5062346;28;19984;-77
2022/04/26 15:02:54;;;;;;;;;;;22.90;99.90;;;;;;5062941;28;19926;-77
2022/04/26 15:05:20;;;;;;;;;;;22.80;99.90;;;;;;5074949;28;19999;-77
2022/04/26 15:10:30;;;;;;;;;;;22.70;99.90;;;;;;5071766;28;19923;-78
2022/04/26 15:18:23;;;;;;;;;;;22.40;99.90;;;;;;5063479;28;19959;-78
2022/04/26 15:20:51;;;;;;;;;;;22.20;99.90;;;;;;5071118;28;19912;-78
2022/04/26 15:23:18;;;;;;;;;;;22.10;99.90;;;;;;5068462;28;19931;-78
2022/04/26 15:25:55;;;;;;;;;;;22.00;99.90;;;;;;5063730;28;19909;-77
2022/04/26 15:28:21;;;;;;;;;;;21.80;99.90;;;;;;5071783;28;19916;-77
2022/04/26 15:30:48;;;;;;;;;;;21.60;99.90;;;;;;5076274;28;19912;-78
2022/04/26 15:33:13;;;;;;;;;;;21.40;99.90;;;;;;5073262;28;20292;-78
2022/04/26 15:35:39;;;;;;;;;;;21.20;99.90;;;;;;5064170;28;19912;-81
2022/04/26 15:38:10;;;;;;;;;;;21.10;99.90;;;;;;5066616;28;19917;-78
2022/04/26 15:40:37;;;;;;;;;;;21.00;99.90;;;;;;5074064;28;19961;-77
2022/04/26 15:43:04;;;;;;;;;;;20.90;99.90;;;;;;5066039;28;19921;-77
2022/04/26 15:45:29;;;;;;;;;;;20.80;99.90;;;;;;5072719;28;19955;-77
2022/04/26 15:47:55;;;;;;;;;;;20.60;99.90;;;;;;5066002;28;19967;-77
2022/04/26 15:50:20;;;;;;;;;;;20.60;99.90;;;;;;5072007;28;19917;-77
2022/04/26 15:52:46;;;;;;;;;;;20.50;99.90;;;;;;5066372;28;19910;-78
2022/04/26 15:55:11;;;;;;;;;;;20.30;99.90;;;;;;5058494;28;19948;-77
2022/04/26 15:57:37;;;;;;;;;;;20.30;99.90;;;;;;5061755;28;20246;-78
2022/04/26 16:00:03;;;;;;;;;;;20.30;99.90;;;;;;5055889;28;19956;-77
2022/04/26 16:02:31;;;;;;;;;;;20.50;99.90;;;;;;5062000;28;19908;-77
2022/04/26 16:04:57;;;;;;;;;;;20.50;99.90;;;;;;5057896;28;19916;-77
2022/04/26 16:07:22;;;;;;;;;;;20.60;99.90;;;;;;5062744;28;19962;-77
2022/04/26 16:20:45;;;;;;;;;;;20.80;99.90;;;;;;5057950;28;20013;-78
2022/04/26 16:23:10;;;;;;;;;;;20.80;99.90;;;;;;5071038;28;19913;-77
2022/04/26 16:25:36;;;;;;;;;;;20.70;99.90;;;;;;5058310;28;20467;-77
2022/04/26 16:28:03;;;;;;;;;;;20.60;99.90;;;;;;5063871;28;19960;-78
2022/04/26 16:30:30;;;;;;;;;;;20.40;99.90;;;;;;5068839;28;20012;-78
2022/04/26 16:32:59;;;;;;;;;;;20.30;99.90;;;;;;5058393;28;20006;-78
2022/04/26 16:35:24;;;;;;;;;;;20.00;99.90;;;;;;5066893;28;19913;-78
2022/04/26 16:37:51;;;;;;;;;;;19.70;99.90;;;;;;5063258;28;19954;-79
2022/04/26 16:40:16;;;;;;;;;;;19.50;99.90;;;;;;5055763;28;19982;-77
2022/04/26 16:42:41;;;;;;;;;;;19.30;99.90;;;;;;5065169;28;20284;-77
2022/04/26 16:45:08;;;;;;;;;;;19.10;99.90;;;;;;5072623;28;19940;-77
2022/04/26 16:47:33;;;;;;;;;;;19.00;99.90;;;;;;5075219;28;19908;-78
2022/04/26 16:49:59;;;;;;;;;;;19.00;99.90;;;;;;5066819;28;20293;-78
2022/04/26 16:52:24;;;;;;;;;;;18.90;99.90;;;;;;5065340;28;19920;-78
2022/04/26 16:54:50;;;;;;;;;;;18.90;99.90;;;;;;5066329;28;20389;-78
2022/04/26 16:57:16;;;;;;;;;;;18.80;99.90;;;;;;5064806;28;19916;-79
2022/04/26 16:59:41;;;;;;;;;;;18.90;99.90;;;;;;5058772;28;19913;-78
2022/04/26 17:02:07;;;;;;;;;;;18.90;99.90;;;;;;5068686;28;19955;-78
2022/04/26 17:04:32;;;;;;;;;;;18.90;99.90;;;;;;5071831;28;20025;-78
2022/04/26 17:06:58;;;;;;;;;;;18.90;99.90;;;;;;5064681;28;19908;-78
2022/04/26 17:09:24;;;;;;;;;;;18.90;99.90;;;;;;5069711;28;19920;-78
2022/04/26 17:11:49;;;;;;;;;;;18.90;99.90;;;;;;5065239;28;19916;-78
2022/04/26 17:14:16;;;;;;;;;;;18.90;99.90;;;;;;5060078;28;19912;-78
2022/04/26 17:16:46;;;;;;;;;;;18.90;99.90;;;;;;5066826;28;20330;-79
2022/04/26 17:19:12;;;;;;;;;;;18.80;99.90;;;;;;5073168;28;19912;-79
2022/04/26 17:21:38;;;;;;;;;;;18.90;99.90;;;;;;5067730;28;20003;-78
2022/04/26 17:24:04;;;;;;;;;;;18.90;99.90;;;;;;5075075;28;19916;-78
2022/04/26 17:26:30;;;;;;;;;;;18.90;99.90;;;;;;5067124;28;19908;-78
2022/04/26 17:28:56;;;;;;;;;;;18.80;99.90;;;;;;5070221;28;20291;-78
2022/04/26 17:31:22;;;;;;;;;;;18.80;99.90;;;;;;5067267;28;20037;-78
2022/04/26 17:33:50;;;;;;;;;;;18.80;99.90;;;;;;5074917;28;19908;-78
2022/04/26 17:36:19;;;;;;;;;;;18.80;99.90;;;;;;5073282;28;19908;-78
2022/04/26 17:38:45;;;;;;;;;;;18.70;99.90;;;;;;5075147;28;19912;-78
2022/04/26 17:41:10;;;;;;;;;;;18.70;99.90;;;;;;5071784;28;20265;-78
2022/04/26 17:43:36;;;;;;;;;;;18.70;99.90;;;;;;5063003;28;19920;-78
2022/04/26 17:46:02;;;;;;;;;;;18.60;99.90;;;;;;5064981;28;19931;-78
2022/04/26 17:48:27;;;;;;;;;;;18.60;99.90;;;;;;5067582;28;19912;-78
2022/04/26 17:50:53;;;;;;;;;;;18.50;99.90;;;;;;5063162;28;20357;-78
2022/04/26 17:58:46;;;;;;;;;;;18.10;99.90;;;;;;5070627;28;19919;-78
2022/04/26 18:01:16;;;;;;;;;;;17.90;99.90;;;;;;5070034;28;19917;-78
2022/04/26 18:03:42;;;;;;;;;;;17.70;99.90;;;;;;5056468;28;19909;-78
2022/04/26 18:06:08;;;;;;;;;;;17.50;99.90;;;;;;5062536;28;19920;-78
2022/04/26 18:08:34;;;;;;;;;;;17.40;99.90;;;;;;5061684;28;19908;-79
2022/04/26 18:11:00;;;;;;;;;;;17.20;99.90;;;;;;5072676;28;19923;-78
2022/04/26 18:13:26;;;;;;;;;;;17.10;99.90;;;;;;5073406;28;20416;-77
2022/04/26 18:15:54;;;;;;;;;;;16.90;99.90;;;;;;5071682;28;19909;-78
2022/04/26 18:18:21;;;;;;;;;;;16.80;99.90;;;;;;5067247;28;19912;-77
2022/04/26 18:20:47;;;;;;;;;;;16.60;99.90;;;;;;5058415;28;19930;-77
2022/04/26 18:23:12;;;;;;;;;;;16.50;99.90;;;;;;5071586;28;19917;-77
2022/04/26 18:28:22;;;;;;;;;;;16.20;99.90;;;;;;5072055;28;19915;-77
2022/04/26 18:30:47;;;;;;;;;;;16.10;99.90;;;;;;5063588;28;20299;-77
2022/04/26 18:33:12;;;;;;;;;;;16.00;99.90;;;;;;5055494;28;19987;-77
2022/04/26 18:35:38;;;;;;;;;;;15.90;99.90;;;;;;5066531;28;19919;-78
2022/04/26 18:38:04;;;;;;;;;;;15.70;99.90;;;;;;5062522;28;19947;-77
2022/04/26 18:40:29;;;;;;;;;;;15.60;99.90;;;;;;5060640;28;20384;-78
2022/04/26 18:42:55;;;;;;;;;;;15.50;99.90;;;;;;5058979;28;19913;-77
2022/04/26 18:45:23;;;;;;;;;;;15.40;99.90;;;;;;5068535;28;20353;-77
2022/04/26 18:47:48;;;;;;;;;;;15.30;99.90;;;;;;5073658;28;19915;-77
2022/04/26 18:50:13;;;;;;;;;;;15.20;99.90;;;;;;5064410;28;20376;-77
2022/04/26 18:52:39;;;;;;;;;;;15.10;99.90;;;;;;5055094;28;19974;-77
2022/04/26 18:55:05;;;;;;;;;;;15.00;99.90;;;;;;5092597;22;19952;-83